sensor_id;sensor_type;location;lat;lon;timestamp;P1;durP1;ratioP1;P2;durP2;ratioP2
20697;SDS011;10508;50.956;4.640;2023-08-01T00:01:53;1.73;;;0.93;;
20697;SDS011;10508;50.956;4.640;2023-08-01T00:04:21;3.60;;;1.10;;
20697;SDS011;10508;50.956;4.640;2023-08-01T00:06:49;5.55;;;1.00;;
20697;SDS011;10508;50.956;4.640;2023-08-01T00:09:16;1.88;;;1.00;;
20697;SDS011;10508;50.956;4.640;2023-08-01T00:11:44;3.08;;;0.93;;
20697;SDS011;10508;50.956;4.640;2023-08-01T00:14:30;1.73;;;0.70;;
20697;SDS011;10508;50.956;4.640;2023-08-01T00:16:58;6.65;;;1.30;;
20697;SDS011;10508;50.956;4.640;2023-08-01T00:19:26;16.23;;;1.20;;
20697;SDS011;10508;50.956;4.640;2023-08-01T00:21:54;2.30;;;1.25;;
20697;SDS011;10508;50.956;4.640;2023-08-01T00:24:21;4.63;;;1.00;;
20697;SDS011;10508;50.956;4.640;2023-08-01T00:26:49;3.92;;;1.42;;
20697;SDS011;10508;50.956;4.640;2023-08-01T00:29:20;2.72;;;0.90;;
20697;SDS011;10508;50.956;4.640;2023-08-01T00:31:47;3.63;;;1.45;;
20697;SDS011;10508;50.956;4.640;2023-08-01T00:34:15;4.45;;;1.30;;
20697;SDS011;10508;50.956;4.640;2023-08-01T00:36:41;4.60;;;1.33;;
20697;SDS011;10508;50.956;4.640;2023-08-01T00:39:07;4.72;;;1.50;;
20697;SDS011;10508;50.956;4.640;2023-08-01T00:41:34;5.07;;;1.23;;
20697;SDS011;10508;50.956;4.640;2023-08-01T00:44:02;2.85;;;1.40;;
20697;SDS011;10508;50.956;4.640;2023-08-01T00:46:29;9.05;;;1.70;;
20697;SDS011;10508;50.956;4.640;2023-08-01T00:48:57;6.22;;;1.70;;
20697;SDS011;10508;50.956;4.640;2023-08-01T00:51:25;3.78;;;1.60;;
20697;SDS011;10508;50.956;4.640;2023-08-01T00:53:53;3.63;;;1.63;;
20697;SDS011;10508;50.956;4.640;2023-08-01T00:56:19;5.95;;;1.48;;
20697;SDS011;10508;50.956;4.640;2023-08-01T00:58:45;3.58;;;1.90;;
20697;SDS011;10508;50.956;4.640;2023-08-01T01:01:11;15.60;;;2.08;;
20697;SDS011;10508;50.956;4.640;2023-08-01T01:03:39;4.05;;;1.90;;
20697;SDS011;10508;50.956;4.640;2023-08-01T01:06:17;3.75;;;1.40;;
20697;SDS011;10508;50.956;4.640;2023-08-01T01:08:47;6.93;;;2.15;;
20697;SDS011;10508;50.956;4.640;2023-08-01T01:11:15;3.28;;;1.67;;
20697;SDS011;10508;50.956;4.640;2023-08-01T01:13:42;6.78;;;1.95;;
20697;SDS011;10508;50.956;4.640;2023-08-01T01:16:10;4.75;;;2.15;;
20697;SDS011;10508;50.956;4.640;2023-08-01T01:18:38;8.45;;;2.10;;
20697;SDS011;10508;50.956;4.640;2023-08-01T01:21:05;3.67;;;1.92;;
20697;SDS011;10508;50.956;4.640;2023-08-01T01:23:33;5.75;;;2.30;;
20697;SDS011;10508;50.956;4.640;2023-08-01T01:25:59;8.45;;;2.40;;
20697;SDS011;10508;50.956;4.640;2023-08-01T01:28:27;10.63;;;2.67;;
20697;SDS011;10508;50.956;4.640;2023-08-01T01:30:53;7.15;;;2.30;;
20697;SDS011;10508;50.956;4.640;2023-08-01T01:33:22;6.38;;;2.50;;
20697;SDS011;10508;50.956;4.640;2023-08-01T01:35:48;3.97;;;2.63;;
20697;SDS011;10508;50.956;4.640;2023-08-01T01:38:14;5.32;;;2.13;;
20697;SDS011;10508;50.956;4.640;2023-08-01T01:40:40;5.35;;;2.20;;
20697;SDS011;10508;50.956;4.640;2023-08-01T01:43:05;5.25;;;2.38;;
20697;SDS011;10508;50.956;4.640;2023-08-01T01:45:31;6.28;;;2.67;;
20697;SDS011;10508;50.956;4.640;2023-08-01T01:47:57;7.88;;;2.40;;
20697;SDS011;10508;50.956;4.640;2023-08-01T01:50:22;6.65;;;2.50;;
20697;SDS011;10508;50.956;4.640;2023-08-01T01:52:51;7.38;;;3.08;;
20697;SDS011;10508;50.956;4.640;2023-08-01T01:55:18;7.07;;;2.70;;
20697;SDS011;10508;50.956;4.640;2023-08-01T01:57:45;4.97;;;2.35;;
20697;SDS011;10508;50.956;4.640;2023-08-01T02:00:13;5.35;;;2.63;;
20697;SDS011;10508;50.956;4.640;2023-08-01T02:02:40;7.22;;;3.08;;
20697;SDS011;10508;50.956;4.640;2023-08-01T02:05:09;5.68;;;2.63;;
20697;SDS011;10508;50.956;4.640;2023-08-01T02:07:37;4.68;;;2.40;;
20697;SDS011;10508;50.956;4.640;2023-08-01T02:10:05;7.13;;;2.58;;
20697;SDS011;10508;50.956;4.640;2023-08-01T02:12:33;9.82;;;2.85;;
20697;SDS011;10508;50.956;4.640;2023-08-01T02:15:02;4.35;;;2.70;;
20697;SDS011;10508;50.956;4.640;2023-08-01T02:17:31;5.10;;;2.60;;
20697;SDS011;10508;50.956;4.640;2023-08-01T02:20:00;5.45;;;2.90;;
20697;SDS011;10508;50.956;4.640;2023-08-01T02:22:30;5.47;;;2.60;;
20697;SDS011;10508;50.956;4.640;2023-08-01T02:24:59;4.53;;;2.63;;
20697;SDS011;10508;50.956;4.640;2023-08-01T02:27:26;5.30;;;2.72;;
20697;SDS011;10508;50.956;4.640;2023-08-01T02:29:53;12.85;;;3.75;;
20697;SDS011;10508;50.956;4.640;2023-08-01T02:32:21;6.95;;;2.55;;
20697;SDS011;10508;50.956;4.640;2023-08-01T02:34:49;6.82;;;3.20;;
20697;SDS011;10508;50.956;4.640;2023-08-01T02:37:17;10.85;;;3.58;;
20697;SDS011;10508;50.956;4.640;2023-08-01T02:39:46;7.57;;;3.22;;
20697;SDS011;10508;50.956;4.640;2023-08-01T02:42:14;10.65;;;3.78;;
20697;SDS011;10508;50.956;4.640;2023-08-01T02:44:40;5.28;;;3.40;;
20697;SDS011;10508;50.956;4.640;2023-08-01T02:47:07;9.00;;;3.55;;
20697;SDS011;10508;50.956;4.640;2023-08-01T02:49:35;9.63;;;4.00;;
20697;SDS011;10508;50.956;4.640;2023-08-01T02:52:03;7.95;;;3.70;;
20697;SDS011;10508;50.956;4.640;2023-08-01T02:54:31;12.30;;;4.22;;
20697;SDS011;10508;50.956;4.640;2023-08-01T02:56:59;5.72;;;3.28;;
20697;SDS011;10508;50.956;4.640;2023-08-01T02:59:26;12.52;;;3.83;;
20697;SDS011;10508;50.956;4.640;2023-08-01T03:01:58;11.18;;;4.13;;
20697;SDS011;10508;50.956;4.640;2023-08-01T03:04:26;9.50;;;3.90;;
20697;SDS011;10508;50.956;4.640;2023-08-01T03:06:54;11.32;;;4.45;;
20697;SDS011;10508;50.956;4.640;2023-08-01T03:09:23;8.07;;;3.95;;
20697;SDS011;10508;50.956;4.640;2023-08-01T03:11:52;9.98;;;3.88;;
20697;SDS011;10508;50.956;4.640;2023-08-01T03:14:21;8.95;;;4.20;;
20697;SDS011;10508;50.956;4.640;2023-08-01T03:16:50;8.70;;;4.30;;
20697;SDS011;10508;50.956;4.640;2023-08-01T03:19:19;14.07;;;4.32;;
20697;SDS011;10508;50.956;4.640;2023-08-01T03:21:46;9.20;;;4.30;;
20697;SDS011;10508;50.956;4.640;2023-08-01T03:24:14;15.30;;;4.60;;
20697;SDS011;10508;50.956;4.640;2023-08-01T03:26:42;12.20;;;4.68;;
20697;SDS011;10508;50.956;4.640;2023-08-01T03:29:10;12.48;;;4.47;;
20697;SDS011;10508;50.956;4.640;2023-08-01T03:31:37;10.73;;;4.93;;
20697;SDS011;10508;50.956;4.640;2023-08-01T03:34:05;10.02;;;4.60;;
20697;SDS011;10508;50.956;4.640;2023-08-01T03:36:34;11.07;;;4.88;;
20697;SDS011;10508;50.956;4.640;2023-08-01T03:39:02;13.70;;;4.88;;
20697;SDS011;10508;50.956;4.640;2023-08-01T03:41:31;7.88;;;4.78;;
20697;SDS011;10508;50.956;4.640;2023-08-01T03:43:57;10.45;;;5.20;;
20697;SDS011;10508;50.956;4.640;2023-08-01T03:46:24;11.60;;;5.43;;
20697;SDS011;10508;50.956;4.640;2023-08-01T03:48:52;10.23;;;5.47;;
20697;SDS011;10508;50.956;4.640;2023-08-01T03:51:20;9.93;;;5.15;;
20697;SDS011;10508;50.956;4.640;2023-08-01T03:53:48;12.52;;;5.03;;
20697;SDS011;10508;50.956;4.640;2023-08-01T03:56:16;12.15;;;5.30;;
20697;SDS011;10508;50.956;4.640;2023-08-01T03:58:43;8.75;;;4.95;;
20697;SDS011;10508;50.956;4.640;2023-08-01T04:01:09;13.73;;;5.40;;
20697;SDS011;10508;50.956;4.640;2023-08-01T04:03:38;10.52;;;4.55;;
20697;SDS011;10508;50.956;4.640;2023-08-01T04:06:07;8.98;;;4.38;;
20697;SDS011;10508;50.956;4.640;2023-08-01T04:08:35;12.73;;;6.15;;
20697;SDS011;10508;50.956;4.640;2023-08-01T04:11:01;13.38;;;5.57;;
20697;SDS011;10508;50.956;4.640;2023-08-01T04:13:27;9.75;;;5.15;;
20697;SDS011;10508;50.956;4.640;2023-08-01T04:15:53;17.90;;;5.53;;
20697;SDS011;10508;50.956;4.640;2023-08-01T04:18:19;12.55;;;5.32;;
20697;SDS011;10508;50.956;4.640;2023-08-01T04:20:46;13.75;;;5.32;;
20697;SDS011;10508;50.956;4.640;2023-08-01T04:23:13;22.35;;;5.50;;
20697;SDS011;10508;50.956;4.640;2023-08-01T04:25:40;21.17;;;6.60;;
20697;SDS011;10508;50.956;4.640;2023-08-01T04:28:06;14.98;;;6.00;;
20697;SDS011;10508;50.956;4.640;2023-08-01T04:30:34;12.65;;;4.97;;
20697;SDS011;10508;50.956;4.640;2023-08-01T04:33:03;13.50;;;5.60;;
20697;SDS011;10508;50.956;4.640;2023-08-01T04:35:31;15.35;;;6.03;;
20697;SDS011;10508;50.956;4.640;2023-08-01T04:37:57;8.55;;;5.32;;
20697;SDS011;10508;50.956;4.640;2023-08-01T04:40:23;14.35;;;5.95;;
20697;SDS011;10508;50.956;4.640;2023-08-01T04:42:49;16.00;;;6.28;;
20697;SDS011;10508;50.956;4.640;2023-08-01T04:45:15;12.00;;;6.07;;
20697;SDS011;10508;50.956;4.640;2023-08-01T04:47:41;12.98;;;5.13;;
20697;SDS011;10508;50.956;4.640;2023-08-01T04:50:09;16.40;;;6.22;;
20697;SDS011;10508;50.956;4.640;2023-08-01T04:52:35;16.88;;;5.90;;
20697;SDS011;10508;50.956;4.640;2023-08-01T04:55:01;11.20;;;5.38;;
20697;SDS011;10508;50.956;4.640;2023-08-01T04:57:28;15.10;;;6.10;;
20697;SDS011;10508;50.956;4.640;2023-08-01T04:59:54;15.52;;;5.90;;
20697;SDS011;10508;50.956;4.640;2023-08-01T05:02:20;17.45;;;5.65;;
20697;SDS011;10508;50.956;4.640;2023-08-01T05:04:46;14.43;;;6.30;;
20697;SDS011;10508;50.956;4.640;2023-08-01T05:07:12;15.55;;;5.68;;
20697;SDS011;10508;50.956;4.640;2023-08-01T05:09:39;13.20;;;6.00;;
20697;SDS011;10508;50.956;4.640;2023-08-01T05:12:06;12.75;;;5.43;;
20697;SDS011;10508;50.956;4.640;2023-08-01T05:14:34;18.17;;;4.78;;
20697;SDS011;10508;50.956;4.640;2023-08-01T05:17:02;17.00;;;5.90;;
20697;SDS011;10508;50.956;4.640;2023-08-01T05:19:30;12.38;;;5.65;;
20697;SDS011;10508;50.956;4.640;2023-08-01T05:21:57;17.77;;;5.45;;
20697;SDS011;10508;50.956;4.640;2023-08-01T05:24:25;22.42;;;6.40;;
20697;SDS011;10508;50.956;4.640;2023-08-01T05:26:53;17.48;;;5.82;;
20697;SDS011;10508;50.956;4.640;2023-08-01T05:29:21;14.60;;;5.13;;
20697;SDS011;10508;50.956;4.640;2023-08-01T05:31:48;18.20;;;5.68;;
20697;SDS011;10508;50.956;4.640;2023-08-01T05:34:16;14.77;;;5.20;;
20697;SDS011;10508;50.956;4.640;2023-08-01T05:36:42;19.65;;;5.18;;
20697;SDS011;10508;50.956;4.640;2023-08-01T05:39:08;25.80;;;6.55;;
20697;SDS011;10508;50.956;4.640;2023-08-01T05:41:36;16.98;;;5.25;;
20697;SDS011;10508;50.956;4.640;2023-08-01T05:44:04;16.75;;;5.07;;
20697;SDS011;10508;50.956;4.640;2023-08-01T05:46:31;15.52;;;5.28;;
20697;SDS011;10508;50.956;4.640;2023-08-01T05:48:59;13.00;;;5.25;;
20697;SDS011;10508;50.956;4.640;2023-08-01T05:51:27;13.68;;;5.00;;
20697;SDS011;10508;50.956;4.640;2023-08-01T05:53:53;18.33;;;5.40;;
20697;SDS011;10508;50.956;4.640;2023-08-01T05:56:19;15.40;;;5.10;;
20697;SDS011;10508;50.956;4.640;2023-08-01T05:58:46;18.90;;;5.82;;
20697;SDS011;10508;50.956;4.640;2023-08-01T06:01:13;16.20;;;5.32;;
20697;SDS011;10508;50.956;4.640;2023-08-01T06:03:39;16.83;;;5.70;;
20697;SDS011;10508;50.956;4.640;2023-08-01T06:06:05;17.42;;;5.25;;
20697;SDS011;10508;50.956;4.640;2023-08-01T06:08:31;16.05;;;5.40;;
20697;SDS011;10508;50.956;4.640;2023-08-01T06:10:57;15.18;;;5.63;;
20697;SDS011;10508;50.956;4.640;2023-08-01T06:13:23;12.45;;;5.40;;
20697;SDS011;10508;50.956;4.640;2023-08-01T06:15:49;12.98;;;5.18;;
20697;SDS011;10508;50.956;4.640;2023-08-01T06:18:17;18.25;;;5.88;;
20697;SDS011;10508;50.956;4.640;2023-08-01T06:20:43;15.60;;;4.93;;
20697;SDS011;10508;50.956;4.640;2023-08-01T06:23:09;14.88;;;5.45;;
20697;SDS011;10508;50.956;4.640;2023-08-01T06:25:34;13.10;;;5.53;;
20697;SDS011;10508;50.956;4.640;2023-08-01T06:28:00;19.33;;;5.22;;
20697;SDS011;10508;50.956;4.640;2023-08-01T06:30:26;14.90;;;5.60;;
20697;SDS011;10508;50.956;4.640;2023-08-01T06:32:51;16.58;;;5.55;;
20697;SDS011;10508;50.956;4.640;2023-08-01T06:35:17;10.43;;;5.32;;
20697;SDS011;10508;50.956;4.640;2023-08-01T06:37:42;14.18;;;5.60;;
20697;SDS011;10508;50.956;4.640;2023-08-01T06:40:09;14.52;;;5.30;;
20697;SDS011;10508;50.956;4.640;2023-08-01T06:42:35;11.13;;;5.05;;
20697;SDS011;10508;50.956;4.640;2023-08-01T06:45:00;14.52;;;5.22;;
20697;SDS011;10508;50.956;4.640;2023-08-01T06:47:26;13.38;;;5.70;;
20697;SDS011;10508;50.956;4.640;2023-08-01T06:49:52;12.77;;;5.30;;
20697;SDS011;10508;50.956;4.640;2023-08-01T06:52:17;13.23;;;5.85;;
20697;SDS011;10508;50.956;4.640;2023-08-01T06:54:43;15.95;;;6.25;;
20697;SDS011;10508;50.956;4.640;2023-08-01T06:57:09;17.08;;;5.25;;
20697;SDS011;10508;50.956;4.640;2023-08-01T06:59:34;12.65;;;5.25;;
20697;SDS011;10508;50.956;4.640;2023-08-01T07:02:01;13.68;;;5.70;;
20697;SDS011;10508;50.956;4.640;2023-08-01T07:04:27;15.82;;;5.13;;
20697;SDS011;10508;50.956;4.640;2023-08-01T07:06:52;15.88;;;5.28;;
20697;SDS011;10508;50.956;4.640;2023-08-01T07:09:18;16.15;;;5.13;;
20697;SDS011;10508;50.956;4.640;2023-08-01T07:11:44;16.85;;;5.55;;
20697;SDS011;10508;50.956;4.640;2023-08-01T07:14:09;12.68;;;5.22;;
20697;SDS011;10508;50.956;4.640;2023-08-01T07:16:35;11.80;;;5.13;;
20697;SDS011;10508;50.956;4.640;2023-08-01T07:19:01;10.88;;;4.60;;
20697;SDS011;10508;50.956;4.640;2023-08-01T07:21:26;12.02;;;4.43;;
20697;SDS011;10508;50.956;4.640;2023-08-01T07:23:54;12.10;;;4.85;;
20697;SDS011;10508;50.956;4.640;2023-08-01T07:26:19;14.65;;;4.68;;
20697;SDS011;10508;50.956;4.640;2023-08-01T07:28:45;8.48;;;4.13;;
20697;SDS011;10508;50.956;4.640;2023-08-01T07:31:11;11.18;;;4.55;;
20697;SDS011;10508;50.956;4.640;2023-08-01T07:33:36;11.57;;;4.38;;
20697;SDS011;10508;50.956;4.640;2023-08-01T07:36:03;11.65;;;4.07;;
20697;SDS011;10508;50.956;4.640;2023-08-01T07:38:29;7.82;;;4.07;;
20697;SDS011;10508;50.956;4.640;2023-08-01T07:40:57;13.05;;;4.60;;
20697;SDS011;10508;50.956;4.640;2023-08-01T07:43:26;10.10;;;4.38;;
20697;SDS011;10508;50.956;4.640;2023-08-01T07:45:55;12.73;;;4.18;;
20697;SDS011;10508;50.956;4.640;2023-08-01T07:48:24;15.50;;;3.65;;
20697;SDS011;10508;50.956;4.640;2023-08-01T07:50:50;14.98;;;4.82;;
20697;SDS011;10508;50.956;4.640;2023-08-01T07:53:16;8.60;;;3.55;;
20697;SDS011;10508;50.956;4.640;2023-08-01T07:55:41;9.27;;;3.80;;
20697;SDS011;10508;50.956;4.640;2023-08-01T07:58:07;9.80;;;3.53;;
20697;SDS011;10508;50.956;4.640;2023-08-01T08:00:34;10.63;;;3.58;;
20697;SDS011;10508;50.956;4.640;2023-08-01T08:03:00;6.07;;;3.00;;
20697;SDS011;10508;50.956;4.640;2023-08-01T08:05:26;10.48;;;3.20;;
20697;SDS011;10508;50.956;4.640;2023-08-01T08:07:51;9.40;;;3.50;;
20697;SDS011;10508;50.956;4.640;2023-08-01T08:10:17;10.93;;;3.95;;
20697;SDS011;10508;50.956;4.640;2023-08-01T08:12:43;10.82;;;3.85;;
20697;SDS011;10508;50.956;4.640;2023-08-01T08:15:09;8.00;;;3.60;;
20697;SDS011;10508;50.956;4.640;2023-08-01T08:17:34;9.48;;;3.80;;
20697;SDS011;10508;50.956;4.640;2023-08-01T08:20:00;14.95;;;4.05;;
20697;SDS011;10508;50.956;4.640;2023-08-01T08:22:26;19.23;;;4.40;;
20697;SDS011;10508;50.956;4.640;2023-08-01T08:24:52;9.27;;;4.50;;
20697;SDS011;10508;50.956;4.640;2023-08-01T08:27:18;10.52;;;4.80;;
20697;SDS011;10508;50.956;4.640;2023-08-01T08:29:44;15.70;;;5.00;;
20697;SDS011;10508;50.956;4.640;2023-08-01T08:32:09;9.73;;;4.25;;
20697;SDS011;10508;50.956;4.640;2023-08-01T08:34:35;13.07;;;4.28;;
20697;SDS011;10508;50.956;4.640;2023-08-01T08:37:01;12.45;;;4.45;;
20697;SDS011;10508;50.956;4.640;2023-08-01T08:39:27;8.45;;;4.53;;
20697;SDS011;10508;50.956;4.640;2023-08-01T08:41:52;10.10;;;4.13;;
20697;SDS011;10508;50.956;4.640;2023-08-01T08:44:19;15.82;;;4.63;;
20697;SDS011;10508;50.956;4.640;2023-08-01T08:46:50;10.40;;;3.58;;
20697;SDS011;10508;50.956;4.640;2023-08-01T08:49:17;6.88;;;3.63;;
20697;SDS011;10508;50.956;4.640;2023-08-01T08:51:45;10.02;;;3.50;;
20697;SDS011;10508;50.956;4.640;2023-08-01T08:54:13;11.65;;;3.75;;
20697;SDS011;10508;50.956;4.640;2023-08-01T08:56:40;12.98;;;3.80;;
20697;SDS011;10508;50.956;4.640;2023-08-01T08:59:07;11.43;;;3.33;;
20697;SDS011;10508;50.956;4.640;2023-08-01T09:01:36;10.38;;;3.60;;
20697;SDS011;10508;50.956;4.640;2023-08-01T09:04:02;11.05;;;3.10;;
20697;SDS011;10508;50.956;4.640;2023-08-01T09:06:30;8.25;;;2.80;;
20697;SDS011;10508;50.956;4.640;2023-08-01T09:09:10;14.18;;;3.28;;
20697;SDS011;10508;50.956;4.640;2023-08-01T09:11:38;6.82;;;2.72;;
20697;SDS011;10508;50.956;4.640;2023-08-01T09:14:09;4.95;;;2.53;;
20697;SDS011;10508;50.956;4.640;2023-08-01T09:16:35;9.55;;;3.60;;
20697;SDS011;10508;50.956;4.640;2023-08-01T09:19:01;8.88;;;3.33;;
20697;SDS011;10508;50.956;4.640;2023-08-01T09:21:31;6.05;;;2.55;;
20697;SDS011;10508;50.956;4.640;2023-08-01T09:26:35;5.18;;;2.47;;
20697;SDS011;10508;50.956;4.640;2023-08-01T09:29:01;5.75;;;2.80;;
20697;SDS011;10508;50.956;4.640;2023-08-01T09:31:34;8.40;;;2.75;;
20697;SDS011;10508;50.956;4.640;2023-08-01T09:34:01;5.10;;;2.72;;
20697;SDS011;10508;50.956;4.640;2023-08-01T09:36:31;5.35;;;2.78;;
20697;SDS011;10508;50.956;4.640;2023-08-01T09:38:58;5.63;;;2.53;;
20697;SDS011;10508;50.956;4.640;2023-08-01T09:41:24;6.63;;;2.80;;
20697;SDS011;10508;50.956;4.640;2023-08-01T09:43:50;6.15;;;2.97;;
20697;SDS011;10508;50.956;4.640;2023-08-01T09:46:16;5.22;;;2.67;;
20697;SDS011;10508;50.956;4.640;2023-08-01T09:48:42;7.43;;;2.85;;
20697;SDS011;10508;50.956;4.640;2023-08-01T09:53:34;8.40;;;2.83;;
20697;SDS011;10508;50.956;4.640;2023-08-01T09:56:11;6.00;;;2.60;;
20697;SDS011;10508;50.956;4.640;2023-08-01T09:58:40;4.70;;;2.20;;
20697;SDS011;10508;50.956;4.640;2023-08-01T10:01:07;5.00;;;2.13;;
20697;SDS011;10508;50.956;4.640;2023-08-01T10:03:34;6.43;;;2.40;;
20697;SDS011;10508;50.956;4.640;2023-08-01T10:06:00;7.95;;;2.22;;
20697;SDS011;10508;50.956;4.640;2023-08-01T10:08:26;4.90;;;2.30;;
20697;SDS011;10508;50.956;4.640;2023-08-01T10:10:54;10.30;;;2.63;;
20697;SDS011;10508;50.956;4.640;2023-08-01T10:13:22;4.95;;;2.28;;
20697;SDS011;10508;50.956;4.640;2023-08-01T10:15:52;5.30;;;2.15;;
20697;SDS011;10508;50.956;4.640;2023-08-01T10:18:18;5.05;;;2.78;;
20697;SDS011;10508;50.956;4.640;2023-08-01T10:20:45;4.40;;;2.85;;
20697;SDS011;10508;50.956;4.640;2023-08-01T10:23:13;4.95;;;2.80;;
20697;SDS011;10508;50.956;4.640;2023-08-01T10:25:39;6.28;;;3.17;;
20697;SDS011;10508;50.956;4.640;2023-08-01T10:28:05;7.80;;;3.10;;
20697;SDS011;10508;50.956;4.640;2023-08-01T10:30:31;9.65;;;3.38;;
20697;SDS011;10508;50.956;4.640;2023-08-01T10:32:58;6.38;;;3.00;;
20697;SDS011;10508;50.956;4.640;2023-08-01T10:35:37;6.18;;;2.95;;
20697;SDS011;10508;50.956;4.640;2023-08-01T10:38:08;5.00;;;2.70;;
20697;SDS011;10508;50.956;4.640;2023-08-01T10:40:38;4.30;;;2.85;;
20697;SDS011;10508;50.956;4.640;2023-08-01T10:43:06;7.25;;;3.20;;
20697;SDS011;10508;50.956;4.640;2023-08-01T10:45:44;6.07;;;3.03;;
20697;SDS011;10508;50.956;4.640;2023-08-01T10:48:10;8.30;;;3.28;;
20697;SDS011;10508;50.956;4.640;2023-08-01T10:50:36;5.00;;;2.92;;
20697;SDS011;10508;50.956;4.640;2023-08-01T10:53:06;8.63;;;3.63;;
20697;SDS011;10508;50.956;4.640;2023-08-01T10:55:43;8.48;;;3.22;;
20697;SDS011;10508;50.956;4.640;2023-08-01T10:58:10;9.48;;;3.08;;
20697;SDS011;10508;50.956;4.640;2023-08-01T11:00:36;9.43;;;2.65;;
20697;SDS011;10508;50.956;4.640;2023-08-01T11:03:02;10.15;;;3.20;;
20697;SDS011;10508;50.956;4.640;2023-08-01T11:05:28;7.95;;;3.25;;
20697;SDS011;10508;50.956;4.640;2023-08-01T11:08:01;9.95;;;2.75;;
20697;SDS011;10508;50.956;4.640;2023-08-01T11:10:29;5.80;;;2.72;;
20697;SDS011;10508;50.956;4.640;2023-08-01T11:12:56;7.70;;;2.90;;
20697;SDS011;10508;50.956;4.640;2023-08-01T11:15:23;6.90;;;2.95;;
20697;SDS011;10508;50.956;4.640;2023-08-01T11:17:49;6.60;;;2.50;;
20697;SDS011;10508;50.956;4.640;2023-08-01T11:20:18;6.47;;;2.40;;
20697;SDS011;10508;50.956;4.640;2023-08-01T11:22:53;5.78;;;2.92;;
20697;SDS011;10508;50.956;4.640;2023-08-01T11:25:31;8.45;;;2.95;;
20697;SDS011;10508;50.956;4.640;2023-08-01T11:28:00;5.90;;;2.08;;
20697;SDS011;10508;50.956;4.640;2023-08-01T11:30:31;7.07;;;2.28;;
20697;SDS011;10508;50.956;4.640;2023-08-01T11:32:58;6.55;;;2.45;;
20697;SDS011;10508;50.956;4.640;2023-08-01T11:35:23;10.35;;;2.65;;
20697;SDS011;10508;50.956;4.640;2023-08-01T11:37:50;5.90;;;2.35;;
20697;SDS011;10508;50.956;4.640;2023-08-01T11:40:16;7.97;;;2.38;;
20697;SDS011;10508;50.956;4.640;2023-08-01T11:42:42;7.18;;;2.80;;
20697;SDS011;10508;50.956;4.640;2023-08-01T11:45:09;5.90;;;2.25;;
20697;SDS011;10508;50.956;4.640;2023-08-01T11:47:36;3.63;;;2.10;;
20697;SDS011;10508;50.956;4.640;2023-08-01T11:50:01;5.97;;;2.10;;
20697;SDS011;10508;50.956;4.640;2023-08-01T11:52:28;7.00;;;2.17;;
20697;SDS011;10508;50.956;4.640;2023-08-01T11:55:03;9.90;;;2.50;;
20697;SDS011;10508;50.956;4.640;2023-08-01T11:57:29;3.75;;;2.20;;
20697;SDS011;10508;50.956;4.640;2023-08-01T11:59:56;5.03;;;2.03;;
20697;SDS011;10508;50.956;4.640;2023-08-01T12:02:25;6.72;;;2.15;;
20697;SDS011;10508;50.956;4.640;2023-08-01T12:04:52;3.65;;;1.92;;
20697;SDS011;10508;50.956;4.640;2023-08-01T12:07:19;5.30;;;1.70;;
20697;SDS011;10508;50.956;4.640;2023-08-01T12:09:54;6.05;;;2.05;;
20697;SDS011;10508;50.956;4.640;2023-08-01T12:12:20;6.70;;;1.58;;
20697;SDS011;10508;50.956;4.640;2023-08-01T12:14:46;6.65;;;1.60;;
20697;SDS011;10508;50.956;4.640;2023-08-01T12:17:12;5.72;;;1.80;;
20697;SDS011;10508;50.956;4.640;2023-08-01T12:19:39;7.55;;;1.95;;
20697;SDS011;10508;50.956;4.640;2023-08-01T12:22:04;5.30;;;1.90;;
20697;SDS011;10508;50.956;4.640;2023-08-01T12:24:30;7.22;;;1.80;;
20697;SDS011;10508;50.956;4.640;2023-08-01T12:26:56;4.65;;;1.70;;
20697;SDS011;10508;50.956;4.640;2023-08-01T12:29:22;7.78;;;1.80;;
20697;SDS011;10508;50.956;4.640;2023-08-01T12:31:48;3.20;;;1.40;;
20697;SDS011;10508;50.956;4.640;2023-08-01T12:34:14;2.53;;;1.20;;
20697;SDS011;10508;50.956;4.640;2023-08-01T12:36:39;3.50;;;1.55;;
20697;SDS011;10508;50.956;4.640;2023-08-01T12:39:05;5.85;;;1.60;;
20697;SDS011;10508;50.956;4.640;2023-08-01T12:41:35;4.97;;;1.30;;
20697;SDS011;10508;50.956;4.640;2023-08-01T12:44:02;2.75;;;1.35;;
20697;SDS011;10508;50.956;4.640;2023-08-01T12:46:28;4.63;;;1.20;;
20697;SDS011;10508;50.956;4.640;2023-08-01T12:48:53;2.10;;;1.05;;
20697;SDS011;10508;50.956;4.640;2023-08-01T12:51:19;2.35;;;1.00;;
20697;SDS011;10508;50.956;4.640;2023-08-01T12:53:45;4.13;;;1.30;;
20697;SDS011;10508;50.956;4.640;2023-08-01T12:56:10;5.55;;;1.30;;
20697;SDS011;10508;50.956;4.640;2023-08-01T12:58:36;5.85;;;1.30;;
20697;SDS011;10508;50.956;4.640;2023-08-01T13:01:02;4.93;;;1.20;;
20697;SDS011;10508;50.956;4.640;2023-08-01T13:03:28;6.63;;;1.35;;
20697;SDS011;10508;50.956;4.640;2023-08-01T13:05:54;2.25;;;0.90;;
20697;SDS011;10508;50.956;4.640;2023-08-01T13:08:22;11.70;;;1.20;;
20697;SDS011;10508;50.956;4.640;2023-08-01T13:10:48;1.35;;;0.80;;
20697;SDS011;10508;50.956;4.640;2023-08-01T13:13:14;4.10;;;1.15;;
20697;SDS011;10508;50.956;4.640;2023-08-01T13:15:41;2.67;;;1.02;;
20697;SDS011;10508;50.956;4.640;2023-08-01T13:18:06;3.28;;;0.90;;
20697;SDS011;10508;50.956;4.640;2023-08-01T13:20:32;3.65;;;0.98;;
20697;SDS011;10508;50.956;4.640;2023-08-01T13:22:58;5.50;;;1.02;;
20697;SDS011;10508;50.956;4.640;2023-08-01T13:25:23;1.45;;;0.68;;
20697;SDS011;10508;50.956;4.640;2023-08-01T13:27:49;4.97;;;0.90;;
20697;SDS011;10508;50.956;4.640;2023-08-01T13:30:15;3.85;;;1.20;;
20697;SDS011;10508;50.956;4.640;2023-08-01T13:32:43;6.15;;;1.17;;
20697;SDS011;10508;50.956;4.640;2023-08-01T13:35:09;3.22;;;1.10;;
20697;SDS011;10508;50.956;4.640;2023-08-01T13:37:35;1.90;;;0.93;;
20697;SDS011;10508;50.956;4.640;2023-08-01T13:40:01;5.40;;;1.23;;
20697;SDS011;10508;50.956;4.640;2023-08-01T13:42:27;3.17;;;1.00;;
20697;SDS011;10508;50.956;4.640;2023-08-01T13:44:53;4.90;;;1.35;;
20697;SDS011;10508;50.956;4.640;2023-08-01T13:47:19;7.28;;;1.15;;
20697;SDS011;10508;50.956;4.640;2023-08-01T13:49:45;4.45;;;1.25;;
20697;SDS011;10508;50.956;4.640;2023-08-01T13:52:11;8.68;;;1.50;;
20697;SDS011;10508;50.956;4.640;2023-08-01T13:54:36;2.60;;;0.93;;
20697;SDS011;10508;50.956;4.640;2023-08-01T13:57:02;8.88;;;1.20;;
20697;SDS011;10508;50.956;4.640;2023-08-01T13:59:28;5.72;;;1.67;;
20697;SDS011;10508;50.956;4.640;2023-08-01T14:01:53;5.68;;;1.27;;
20697;SDS011;10508;50.956;4.640;2023-08-01T14:04:20;4.82;;;1.63;;
20697;SDS011;10508;50.956;4.640;2023-08-01T14:06:46;5.45;;;1.27;;
20697;SDS011;10508;50.956;4.640;2023-08-01T14:09:11;6.63;;;1.00;;
20697;SDS011;10508;50.956;4.640;2023-08-01T14:11:37;4.53;;;1.30;;
20697;SDS011;10508;50.956;4.640;2023-08-01T14:14:04;2.50;;;0.85;;
20697;SDS011;10508;50.956;4.640;2023-08-01T14:16:29;5.80;;;1.20;;
20697;SDS011;10508;50.956;4.640;2023-08-01T14:18:56;4.60;;;1.10;;
20697;SDS011;10508;50.956;4.640;2023-08-01T14:21:22;3.85;;;1.13;;
20697;SDS011;10508;50.956;4.640;2023-08-01T14:23:48;5.85;;;1.33;;
20697;SDS011;10508;50.956;4.640;2023-08-01T14:26:13;7.50;;;1.92;;
20697;SDS011;10508;50.956;4.640;2023-08-01T14:28:39;3.38;;;1.38;;
20697;SDS011;10508;50.956;4.640;2023-08-01T14:31:05;4.50;;;1.20;;
20697;SDS011;10508;50.956;4.640;2023-08-01T14:33:32;5.22;;;1.55;;
20697;SDS011;10508;50.956;4.640;2023-08-01T14:35:58;6.82;;;1.40;;
20697;SDS011;10508;50.956;4.640;2023-08-01T14:38:23;7.07;;;1.38;;
20697;SDS011;10508;50.956;4.640;2023-08-01T14:40:49;4.35;;;0.95;;
20697;SDS011;10508;50.956;4.640;2023-08-01T14:43:17;2.90;;;1.13;;
20697;SDS011;10508;50.956;4.640;2023-08-01T14:45:42;5.78;;;1.73;;
20697;SDS011;10508;50.956;4.640;2023-08-01T14:48:08;4.38;;;1.42;;